Time;durP1;ratioP1;P1;durP2;ratioP2;P2;SDS_P1;SDS_P2;PMS_P1;PMS_P2;Temp;Humidity;BMP_temperature;BMP_pressure;BME280_temperature;BME280_humidity;BME280_pressure;Samples;Min_cycle;Max_cycle;Signal;HPM_P1;HPM_P2
2023/01/22 00:02:18;;;;;;;3.30;2.53;;;;;;;;;;5035458;28;20091;-82
2023/01/22 00:04:43;;;;;;;3.88;2.40;;;;;;;;;;5035388;28;20417;-81
2023/01/22 00:07:10;;;;;;;7.13;2.50;;;;;;;;;;5035190;28;20056;-81
2023/01/22 00:09:35;;;;;;;2.65;2.17;;;;;;;;;;5017699;28;20033;-81
2023/01/22 00:12:00;;;;;;;3.03;2.40;;;;;;;;;;5035049;28;20033;-81
2023/01/22 00:14:26;;;;;;;2.75;2.40;;;;;;;;;;5017279;28;20037;-81
2023/01/22 00:16:51;;;;;;;2.70;2.30;;;;;;;;;;5035046;28;20104;-82
2023/01/22 00:19:17;;;;;;;2.75;2.40;;;;;;;;;;4984551;28;20034;-82
2023/01/22 00:21:42;;;;;;;3.13;2.42;;;;;;;;;;5035050;28;20072;-81
2023/01/22 00:24:07;;;;;;;7.90;2.35;;;;;;;;;;5017354;28;20025;-81
2023/01/22 00:26:33;;;;;;;3.80;2.25;;;;;;;;;;5016984;28;20037;-81
2023/01/22 00:28:58;;;;;;;2.40;2.20;;;;;;;;;;5035298;28;20029;-81
2023/01/22 00:31:24;;;;;;;3.58;2.33;;;;;;;;;;5034608;28;20033;-79
2023/01/22 00:33:50;;;;;;;2.90;2.30;;;;;;;;;;5034639;28;20067;-81
2023/01/22 00:36:18;;;;;;;3.00;2.20;;;;;;;;;;5035089;28;20034;-81
2023/01/22 00:38:43;;;;;;;2.50;2.30;;;;;;;;;;5016782;28;20353;-81
2023/01/22 00:41:09;;;;;;;2.25;2.05;;;;;;;;;;5034508;28;20064;-81
2023/01/22 00:43:37;;;;;;;3.30;2.50;;;;;;;;;;5016756;28;20026;-81
2023/01/22 00:46:03;;;;;;;2.88;2.38;;;;;;;;;;5016991;28;20058;-81
2023/01/22 00:48:28;;;;;;;3.03;2.35;;;;;;;;;;5016677;28;20033;-80
2023/01/22 00:50:55;;;;;;;2.60;2.40;;;;;;;;;;5016771;28;20025;-81
2023/01/22 00:53:20;;;;;;;3.22;2.60;;;;;;;;;;5034589;28;20033;-80
2023/01/22 00:55:50;;;;;;;2.65;2.40;;;;;;;;;;5000404;28;20567;-81
2023/01/22 00:58:15;;;;;;;2.97;2.60;;;;;;;;;;5016552;28;20119;-81
2023/01/22 01:00:41;;;;;;;2.45;2.25;;;;;;;;;;5034302;28;20472;-80
2023/01/22 01:05:50;;;;;;;2.70;2.40;;;;;;;;;;5019331;28;20495;-81
2023/01/22 01:08:15;;;;;;;3.05;2.75;;;;;;;;;;5033855;28;20041;-81
2023/01/22 01:10:41;;;;;;;3.63;2.33;;;;;;;;;;5016361;28;20025;-81
2023/01/22 01:13:06;;;;;;;3.92;2.50;;;;;;;;;;5034141;28;20036;-81
2023/01/22 01:15:31;;;;;;;6.78;2.78;;;;;;;;;;5034050;28;20033;-82
2023/01/22 01:17:57;;;;;;;3.00;2.70;;;;;;;;;;5030610;28;20566;-81
2023/01/22 01:20:22;;;;;;;3.33;2.33;;;;;;;;;;5032833;28;20037;-82
2023/01/22 01:22:48;;;;;;;4.55;2.35;;;;;;;;;;5033841;28;20116;-81
2023/01/22 01:25:13;;;;;;;3.25;2.63;;;;;;;;;;5032581;28;20410;-80
2023/01/22 01:27:38;;;;;;;2.35;2.15;;;;;;;;;;5033902;28;20029;-81
2023/01/22 01:30:04;;;;;;;3.25;2.60;;;;;;;;;;5032221;28;20032;-80
2023/01/22 01:32:30;;;;;;;2.78;2.42;;;;;;;;;;5032294;28;20087;-80
2023/01/22 01:34:55;;;;;;;2.42;2.10;;;;;;;;;;5033589;28;20396;-81
2023/01/22 01:37:20;;;;;;;13.02;3.00;;;;;;;;;;5033560;28;20072;-81
2023/01/22 01:39:46;;;;;;;2.85;2.38;;;;;;;;;;5032218;28;20037;-80
2023/01/22 01:42:12;;;;;;;5.95;2.30;;;;;;;;;;5033623;28;20040;-81
2023/01/22 01:44:39;;;;;;;3.53;2.33;;;;;;;;;;5033360;28;20029;-81
2023/01/22 01:47:08;;;;;;;2.80;1.98;;;;;;;;;;5033442;28;20032;-81
2023/01/22 01:49:46;;;;;;;2.85;2.28;;;;;;;;;;5032040;28;20033;-81
2023/01/22 01:52:12;;;;;;;4.47;2.35;;;;;;;;;;5032164;28;20404;-81
2023/01/22 01:54:38;;;;;;;3.17;2.25;;;;;;;;;;5033170;28;20559;-81
2023/01/22 01:57:13;;;;;;;3.10;2.28;;;;;;;;;;5032032;28;20465;-81
2023/01/22 01:59:39;;;;;;;2.53;2.17;;;;;;;;;;5031900;28;20340;-81
2023/01/22 02:02:05;;;;;;;2.80;2.50;;;;;;;;;;5032256;28;20036;-81
2023/01/22 02:04:30;;;;;;;4.80;2.30;;;;;;;;;;5015374;28;20033;-81
2023/01/22 02:06:55;;;;;;;4.22;2.70;;;;;;;;;;5031735;28;20087;-82
2023/01/22 02:09:21;;;;;;;3.85;2.67;;;;;;;;;;5033718;28;20041;-81
2023/01/22 02:11:49;;;;;;;3.72;2.30;;;;;;;;;;5032058;28;20087;-81
2023/01/22 02:14:23;;;;;;;3.40;2.30;;;;;;;;;;5032030;28;20022;-81
2023/01/22 02:17:10;;;;;;;2.92;2.25;;;;;;;;;;5026992;28;20129;-81
2023/01/22 02:19:36;;;;;;;3.40;2.20;;;;;;;;;;5015361;28;20026;-81
2023/01/22 02:22:01;;;;;;;2.92;2.50;;;;;;;;;;5033183;28;20033;-81
2023/01/22 02:24:29;;;;;;;3.05;2.33;;;;;;;;;;5015259;28;20104;-81
2023/01/22 02:26:54;;;;;;;2.20;2.00;;;;;;;;;;4998775;28;20029;-81
2023/01/22 02:29:20;;;;;;;2.20;2.00;;;;;;;;;;5015066;28;20164;-80
2023/01/22 02:31:45;;;;;;;3.10;2.47;;;;;;;;;;5015481;28;20029;-80
2023/01/22 02:34:11;;;;;;;3.78;2.10;;;;;;;;;;5032945;28;20118;-80
2023/01/22 02:36:38;;;;;;;4.10;2.20;;;;;;;;;;5015018;28;20045;-80
2023/01/22 02:39:04;;;;;;;3.53;2.03;;;;;;;;;;5015326;28;20033;-80
2023/01/22 02:41:29;;;;;;;1.92;1.80;;;;;;;;;;5014917;28;20058;-81
2023/01/22 02:43:55;;;;;;;2.03;1.85;;;;;;;;;;5032644;28;20119;-81
2023/01/22 02:46:20;;;;;;;2.92;2.20;;;;;;;;;;4998619;28;20037;-81
2023/01/22 02:48:46;;;;;;;4.05;2.03;;;;;;;;;;5015128;28;20042;-81
2023/01/22 02:51:11;;;;;;;2.28;2.08;;;;;;;;;;5015014;28;20053;-81
2023/01/22 02:53:37;;;;;;;3.53;2.10;;;;;;;;;;5014579;28;20029;-82
2023/01/22 02:56:07;;;;;;;2.35;2.03;;;;;;;;;;5032390;28;20025;-81
2023/01/22 02:58:33;;;;;;;2.20;2.00;;;;;;;;;;5014881;28;20030;-81
2023/01/22 03:01:06;;;;;;;2.05;1.88;;;;;;;;;;5014795;28;20026;-81
2023/01/22 03:03:32;;;;;;;2.20;2.00;;;;;;;;;;5017596;28;20033;-82
2023/01/22 03:05:57;;;;;;;2.00;1.80;;;;;;;;;;5002305;28;20068;-83
2023/01/22 03:08:25;;;;;;;3.60;2.33;;;;;;;;;;5036203;28;20049;-81
2023/01/22 03:10:56;;;;;;;2.47;1.92;;;;;;;;;;5036361;28;20112;-81
2023/01/22 03:21:33;;;;;;;2.20;1.70;;;;;;;;;;5021397;28;20135;-81
2023/01/22 03:23:59;;;;;;;2.78;1.77;;;;;;;;;;5036131;28;20057;-81
2023/01/22 03:26:24;;;;;;;2.20;1.60;;;;;;;;;;5018219;28;20034;-81
2023/01/22 03:28:50;;;;;;;2.35;1.75;;;;;;;;;;5036198;28;20047;-82
2023/01/22 03:31:16;;;;;;;4.05;1.55;;;;;;;;;;5018520;28;20644;-82
2023/01/22 03:33:42;;;;;;;3.03;2.00;;;;;;;;;;5018217;28;20032;-80
2023/01/22 03:36:11;;;;;;;1.50;1.40;;;;;;;;;;5002345;28;20484;-80
2023/01/22 03:38:36;;;;;;;2.10;1.50;;;;;;;;;;5018431;28;20476;-79
2023/01/22 03:41:02;;;;;;;3.28;1.90;;;;;;;;;;5036099;28;20071;-80
2023/01/22 03:43:28;;;;;;;1.58;1.40;;;;;;;;;;5018150;28;20437;-80
2023/01/22 03:45:59;;;;;;;1.98;1.55;;;;;;;;;;5001562;28;20060;-80
2023/01/22 03:48:25;;;;;;;3.40;1.60;;;;;;;;;;5017908;28;20025;-80
2023/01/22 03:50:50;;;;;;;2.72;1.90;;;;;;;;;;5035787;28;20021;-80
2023/01/22 03:53:15;;;;;;;1.70;1.52;;;;;;;;;;5035729;28;20029;-80
2023/01/22 03:55:41;;;;;;;1.85;1.60;;;;;;;;;;5035439;28;20025;-80
2023/01/22 03:58:06;;;;;;;2.20;1.50;;;;;;;;;;5035408;28;20033;-80
2023/01/22 04:00:31;;;;;;;2.28;1.70;;;;;;;;;;5035287;28;20029;-80
2023/01/22 04:02:57;;;;;;;3.20;1.80;;;;;;;;;;5035580;28;20031;-81
2023/01/22 04:05:22;;;;;;;1.70;1.40;;;;;;;;;;5017849;28;20104;-80
2023/01/22 04:07:49;;;;;;;1.70;1.60;;;;;;;;;;5017439;28;20029;-80
2023/01/22 04:10:15;;;;;;;1.88;1.60;;;;;;;;;;5035580;28;20083;-80
2023/01/22 04:12:41;;;;;;;1.70;1.60;;;;;;;;;;5016973;28;20029;-81
2023/01/22 04:15:07;;;;;;;1.67;1.50;;;;;;;;;;5017408;28;20091;-81
2023/01/22 04:17:32;;;;;;;1.95;1.70;;;;;;;;;;5035400;28;20140;-80
2023/01/22 04:19:57;;;;;;;1.60;1.40;;;;;;;;;;5017109;28;20116;-80
2023/01/22 04:22:23;;;;;;;1.30;1.20;;;;;;;;;;5001260;28;20040;-80
2023/01/22 04:24:48;;;;;;;1.92;1.42;;;;;;;;;;5034842;28;20029;-80
2023/01/22 04:27:13;;;;;;;1.77;1.40;;;;;;;;;;5035432;28;20443;-81
2023/01/22 04:29:39;;;;;;;3.42;1.40;;;;;;;;;;5034766;28;20079;-81
2023/01/22 04:32:04;;;;;;;2.03;1.52;;;;;;;;;;5016961;28;20393;-81
2023/01/22 04:34:29;;;;;;;1.50;1.40;;;;;;;;;;5016898;28;20102;-80
2023/01/22 04:36:55;;;;;;;1.95;1.42;;;;;;;;;;5000563;28;20034;-80
2023/01/22 04:39:20;;;;;;;1.35;1.25;;;;;;;;;;5000951;28;20100;-80
2023/01/22 04:41:46;;;;;;;4.13;1.50;;;;;;;;;;5017010;28;20041;-80
2023/01/22 04:44:11;;;;;;;1.40;1.30;;;;;;;;;;5017241;28;20532;-80
2023/01/22 04:46:36;;;;;;;1.55;1.45;;;;;;;;;;5016855;28;20043;-80
2023/01/22 04:49:02;;;;;;;2.30;1.50;;;;;;;;;;5000292;28;20037;-81
2023/01/22 04:51:27;;;;;;;2.38;1.60;;;;;;;;;;5034851;28;20377;-80
2023/01/22 04:53:52;;;;;;;1.75;1.50;;;;;;;;;;5034312;28;20036;-81
2023/01/22 04:56:18;;;;;;;1.85;1.40;;;;;;;;;;5016476;28;20056;-81
2023/01/22 04:58:43;;;;;;;1.40;1.30;;;;;;;;;;5016585;28;20029;-80
2023/01/22 05:01:09;;;;;;;1.80;1.70;;;;;;;;;;5033842;28;20386;-81
2023/01/22 05:03:34;;;;;;;1.80;1.30;;;;;;;;;;5001007;28;20029;-81
2023/01/22 05:06:03;;;;;;;1.48;1.38;;;;;;;;;;5034663;28;20040;-80
2023/01/22 05:08:29;;;;;;;2.05;1.20;;;;;;;;;;5016829;28;20063;-82
2023/01/22 05:10:54;;;;;;;1.60;1.40;;;;;;;;;;5016846;28;20033;-80
2023/01/22 05:13:19;;;;;;;1.48;1.33;;;;;;;;;;5016543;28;20037;-80
2023/01/22 05:15:45;;;;;;;2.33;1.20;;;;;;;;;;5000226;28;20033;-80
2023/01/22 05:18:10;;;;;;;2.45;1.20;;;;;;;;;;5034074;28;20416;-80
2023/01/22 05:20:35;;;;;;;1.70;1.15;;;;;;;;;;5016676;28;20037;-80
2023/01/22 05:23:01;;;;;;;1.30;1.17;;;;;;;;;;5034123;28;20057;-80
2023/01/22 05:25:26;;;;;;;5.32;1.92;;;;;;;;;;5033574;28;20040;-81
2023/01/22 05:27:52;;;;;;;1.30;1.20;;;;;;;;;;5016770;28;20461;-81
2023/01/22 05:30:17;;;;;;;1.38;1.25;;;;;;;;;;5034500;28;20081;-81
2023/01/22 05:32:42;;;;;;;1.25;1.15;;;;;;;;;;5034447;28;20037;-81
2023/01/22 05:35:08;;;;;;;1.70;1.20;;;;;;;;;;5033925;28;20108;-81
2023/01/22 05:37:33;;;;;;;1.17;1.10;;;;;;;;;;4999828;28;20025;-81
2023/01/22 05:39:59;;;;;;;1.63;1.30;;;;;;;;;;5016287;28;20434;-81
2023/01/22 05:42:24;;;;;;;1.70;1.15;;;;;;;;;;5016189;28;20030;-81
2023/01/22 05:44:49;;;;;;;1.05;0.98;;;;;;;;;;5016688;28;20052;-82
2023/01/22 05:47:15;;;;;;;1.20;1.10;;;;;;;;;;5033732;28;20167;-80
2023/01/22 05:49:40;;;;;;;1.20;1.10;;;;;;;;;;5033690;28;20029;-80
2023/01/22 05:52:09;;;;;;;2.75;1.02;;;;;;;;;;5016317;28;20116;-79
2023/01/22 05:54:35;;;;;;;2.47;1.23;;;;;;;;;;5016427;28;20026;-80
2023/01/22 05:57:00;;;;;;;1.20;1.10;;;;;;;;;;5033555;28;20053;-80
2023/01/22 05:59:25;;;;;;;2.05;1.05;;;;;;;;;;5033421;28;20124;-80
2023/01/22 06:01:51;;;;;;;1.13;0.93;;;;;;;;;;5015874;28;20040;-80
2023/01/22 06:04:16;;;;;;;1.80;1.00;;;;;;;;;;5016144;28;20075;-80
2023/01/22 06:06:41;;;;;;;1.20;1.08;;;;;;;;;;5033339;28;20029;-80
2023/01/22 06:09:07;;;;;;;2.70;1.13;;;;;;;;;;5033834;28;20542;-80
2023/01/22 06:11:32;;;;;;;4.47;1.10;;;;;;;;;;5033421;28;20056;-81
2023/01/22 06:13:58;;;;;;;1.10;1.00;;;;;;;;;;5015599;28;20116;-81
2023/01/22 06:16:23;;;;;;;1.10;1.00;;;;;;;;;;5017276;28;20390;-81
2023/01/22 06:18:48;;;;;;;1.90;1.20;;;;;;;;;;5032434;28;20026;-81
2023/01/22 06:21:14;;;;;;;1.10;1.00;;;;;;;;;;5033282;28;20034;-81
2023/01/22 06:23:39;;;;;;;1.45;0.95;;;;;;;;;;5016389;28;20072;-81
2023/01/22 06:26:05;;;;;;;3.30;1.05;;;;;;;;;;5032355;28;20388;-81
2023/01/22 06:28:31;;;;;;;1.60;1.00;;;;;;;;;;5033269;28;20029;-81
2023/01/22 06:31:06;;;;;;;1.90;1.13;;;;;;;;;;5032036;28;20033;-80
2023/01/22 06:33:35;;;;;;;1.20;1.10;;;;;;;;;;5033219;28;20021;-80
2023/01/22 06:36:01;;;;;;;1.25;1.13;;;;;;;;;;5031955;28;20044;-81
2023/01/22 06:38:26;;;;;;;1.73;1.20;;;;;;;;;;5035657;28;20025;-80
2023/01/22 06:40:53;;;;;;;1.17;1.05;;;;;;;;;;5035883;28;20026;-80
2023/01/22 06:43:18;;;;;;;0.90;0.90;;;;;;;;;;5036236;28;20504;-80
2023/01/22 06:45:44;;;;;;;1.58;0.95;;;;;;;;;;5037265;28;20133;-80
2023/01/22 06:48:09;;;;;;;1.13;1.02;;;;;;;;;;5036022;28;20104;-81
2023/01/22 06:50:34;;;;;;;1.00;1.00;;;;;;;;;;5037246;28;20104;-80
2023/01/22 06:53:00;;;;;;;1.23;1.00;;;;;;;;;;5037435;28;20033;-80
2023/01/22 06:55:25;;;;;;;0.90;0.90;;;;;;;;;;5035768;28;20091;-80
2023/01/22 06:57:53;;;;;;;1.83;1.10;;;;;;;;;;5035749;28;20030;-80
2023/01/22 07:00:19;;;;;;;1.15;1.00;;;;;;;;;;5036676;28;20053;-81
2023/01/22 07:02:44;;;;;;;1.20;1.10;;;;;;;;;;5019670;28;20413;-81
2023/01/22 07:05:10;;;;;;;1.08;0.90;;;;;;;;;;5037110;28;20060;-81
2023/01/22 07:07:35;;;;;;;1.02;0.98;;;;;;;;;;5036814;28;20103;-81
2023/01/22 07:10:00;;;;;;;1.30;1.05;;;;;;;;;;5035465;28;20029;-80
2023/01/22 07:12:26;;;;;;;1.65;0.90;;;;;;;;;;5036771;28;20045;-82
2023/01/22 07:14:51;;;;;;;1.02;0.90;;;;;;;;;;5037049;28;20060;-79
2023/01/22 07:17:17;;;;;;;4.18;1.00;;;;;;;;;;5034300;28;20057;-79
2023/01/22 07:19:42;;;;;;;1.52;1.05;;;;;;;;;;5035622;28;20037;-79
2023/01/22 07:22:07;;;;;;;1.13;0.93;;;;;;;;;;5035215;28;20029;-79
2023/01/22 07:24:33;;;;;;;0.80;0.80;;;;;;;;;;5035343;28;20499;-78
2023/01/22 07:27:00;;;;;;;1.10;1.00;;;;;;;;;;5034249;28;20025;-79
2023/01/22 07:29:25;;;;;;;1.50;0.90;;;;;;;;;;5034094;28;20013;-80
2023/01/22 07:31:51;;;;;;;0.90;0.90;;;;;;;;;;5033727;28;20124;-80
2023/01/22 07:34:16;;;;;;;0.80;0.80;;;;;;;;;;5035001;28;20437;-80
2023/01/22 07:36:42;;;;;;;1.20;1.00;;;;;;;;;;5035218;28;20029;-80
2023/01/22 07:39:07;;;;;;;2.30;1.15;;;;;;;;;;5035281;28;20460;-80
2023/01/22 07:41:32;;;;;;;1.52;1.15;;;;;;;;;;5033703;28;20124;-81
2023/01/22 07:43:59;;;;;;;0.98;0.93;;;;;;;;;;5033664;28;20117;-80
2023/01/22 07:46:25;;;;;;;1.10;1.00;;;;;;;;;;5033457;28;20112;-79
2023/01/22 07:48:51;;;;;;;1.08;0.98;;;;;;;;;;5033368;28;20038;-81
2023/01/22 07:51:16;;;;;;;2.15;0.93;;;;;;;;;;5034792;28;20432;-80
2023/01/22 07:53:42;;;;;;;0.90;0.90;;;;;;;;;;5033469;28;20025;-80
2023/01/22 07:56:07;;;;;;;1.10;1.00;;;;;;;;;;5034564;28;20049;-80
2023/01/22 07:58:32;;;;;;;1.45;0.90;;;;;;;;;;5034599;28;20033;-80
2023/01/22 08:00:58;;;;;;;2.45;0.90;;;;;;;;;;5034724;28;20450;-84
2023/01/22 08:03:23;;;;;;;4.47;0.98;;;;;;;;;;5034572;28;20057;-80
2023/01/22 08:05:49;;;;;;;1.35;1.00;;;;;;;;;;5033228;28;20116;-81
2023/01/22 08:08:16;;;;;;;6.00;1.20;;;;;;;;;;5033783;28;20033;-82
2023/01/22 08:10:42;;;;;;;6.22;0.95;;;;;;;;;;5033406;28;20108;-83
2023/01/22 08:13:07;;;;;;;3.35;1.10;;;;;;;;;;5033365;28;20029;-83
2023/01/22 08:15:33;;;;;;;1.50;0.88;;;;;;;;;;5033477;28;20023;-82
2023/01/22 08:17:58;;;;;;;3.13;0.98;;;;;;;;;;4994569;28;1137708;-83
2023/01/22 08:20:24;;;;;;;2.60;1.20;;;;;;;;;;5033994;28;20492;-83
2023/01/22 08:22:50;;;;;;;3.92;1.02;;;;;;;;;;5034129;28;20060;-83
2023/01/22 08:25:16;;;;;;;2.38;1.20;;;;;;;;;;5034051;28;20486;-83
2023/01/22 08:27:41;;;;;;;1.58;1.00;;;;;;;;;;5034015;28;20128;-82
2023/01/22 08:30:10;;;;;;;5.90;1.00;;;;;;;;;;5033857;28;20111;-83
2023/01/22 08:32:35;;;;;;;9.82;1.75;;;;;;;;;;5017690;28;20568;-83
2023/01/22 08:35:01;;;;;;;2.22;0.70;;;;;;;;;;5034418;28;20112;-82
2023/01/22 08:37:26;;;;;;;1.15;1.02;;;;;;;;;;5035597;28;20072;-83
2023/01/22 08:39:51;;;;;;;5.40;1.55;;;;;;;;;;5034971;28;20038;-82
2023/01/22 08:42:17;;;;;;;7.35;1.17;;;;;;;;;;5017141;28;20118;-80
2023/01/22 08:44:42;;;;;;;4.25;0.90;;;;;;;;;;5033934;28;20480;-81
2023/01/22 08:47:09;;;;;;;1.75;0.98;;;;;;;;;;5035363;28;20033;-83
2023/01/22 08:49:34;;;;;;;4.43;1.15;;;;;;;;;;5017126;28;20452;-81
2023/01/22 08:52:00;;;;;;;5.03;1.95;;;;;;;;;;5033529;28;20041;-81
2023/01/22 08:54:25;;;;;;;5.28;1.10;;;;;;;;;;5018054;28;20037;-81
2023/01/22 08:56:51;;;;;;;13.65;1.35;;;;;;;;;;5033469;28;20474;-81
2023/01/22 08:59:16;;;;;;;1.73;0.95;;;;;;;;;;5016892;28;20552;-80
2023/01/22 09:01:42;;;;;;;4.22;1.13;;;;;;;;;;5032566;28;20079;-81
2023/01/22 09:04:08;;;;;;;6.35;1.70;;;;;;;;;;5016747;28;20033;-81
2023/01/22 09:06:35;;;;;;;5.93;2.13;;;;;;;;;;5033493;28;20096;-80
2023/01/22 09:09:01;;;;;;;7.32;2.25;;;;;;;;;;5033223;28;20035;-81
2023/01/22 09:11:29;;;;;;;10.75;2.88;;;;;;;;;;5033190;28;20108;-81
2023/01/22 09:13:56;;;;;;;13.82;2.95;;;;;;;;;;5033679;28;20491;-80
2023/01/22 09:16:25;;;;;;;8.45;2.95;;;;;;;;;;5036384;28;20132;-79
2023/01/22 09:18:51;;;;;;;10.25;2.83;;;;;;;;;;5019808;28;20045;-80
2023/01/22 09:21:16;;;;;;;11.55;2.80;;;;;;;;;;5036136;28;20041;-80
2023/01/22 09:23:42;;;;;;;9.02;3.22;;;;;;;;;;5036531;28;20103;-80
2023/01/22 09:26:07;;;;;;;8.60;2.90;;;;;;;;;;5036242;28;20025;-80
2023/01/22 09:28:33;;;;;;;12.98;2.90;;;;;;;;;;5036073;28;20029;-80
2023/01/22 09:30:58;;;;;;;9.65;2.70;;;;;;;;;;5035954;28;20029;-80
2023/01/22 09:33:24;;;;;;;6.78;2.08;;;;;;;;;;5019468;28;20033;-80
2023/01/22 09:35:49;;;;;;;14.00;2.53;;;;;;;;;;5035920;28;20033;-80
2023/01/22 09:38:17;;;;;;;6.25;1.88;;;;;;;;;;5054124;28;20078;-80
2023/01/22 09:40:57;;;;;;;6.82;2.00;;;;;;;;;;5036094;28;20033;-80
2023/01/22 09:43:36;;;;;;;9.07;2.60;;;;;;;;;;5036473;28;20052;-80
2023/01/22 09:46:05;;;;;;;4.63;2.58;;;;;;;;;;5053529;28;20025;-80
2023/01/22 09:48:36;;;;;;;5.05;2.20;;;;;;;;;;5036116;28;20024;-79
2023/01/22 09:51:01;;;;;;;7.03;2.67;;;;;;;;;;5019289;28;20115;-80
2023/01/22 09:53:28;;;;;;;4.78;2.10;;;;;;;;;;5053570;28;20028;-79
2023/01/22 09:55:54;;;;;;;4.43;2.35;;;;;;;;;;5035682;28;20057;-81
2023/01/22 09:58:21;;;;;;;5.75;1.98;;;;;;;;;;5019082;28;20028;-80
2023/01/22 10:00:50;;;;;;;4.05;1.77;;;;;;;;;;5018940;28;20400;-80
2023/01/22 10:03:30;;;;;;;6.13;2.03;;;;;;;;;;5035728;28;20021;-81
2023/01/22 10:05:59;;;;;;;8.98;2.13;;;;;;;;;;5018957;28;20021;-79
2023/01/22 10:08:39;;;;;;;4.10;2.10;;;;;;;;;;5035229;28;20021;-80
2023/01/22 10:11:08;;;;;;;3.72;1.48;;;;;;;;;;5035389;28;20387;-79
2023/01/22 10:13:35;;;;;;;7.63;1.83;;;;;;;;;;5035348;28;20423;-79
2023/01/22 10:16:01;;;;;;;6.13;2.08;;;;;;;;;;5033993;28;20385;-80
2023/01/22 10:18:44;;;;;;;6.68;2.55;;;;;;;;;;5015750;28;20037;-79
2023/01/22 10:21:21;;;;;;;9.55;3.05;;;;;;;;;;5033216;28;20196;-77
2023/01/22 10:23:49;;;;;;;20.48;3.97;;;;;;;;;;5015563;28;20554;-77
2023/01/22 10:26:24;;;;;;;16.77;4.47;;;;;;;;;;5015700;28;20388;-76
2023/01/22 10:28:53;;;;;;;18.88;4.10;;;;;;;;;;5015910;28;20162;-80
2023/01/22 10:31:22;;;;;;;22.90;5.03;;;;;;;;;;5015571;28;20052;-77
2023/01/22 10:33:55;;;;;;;16.48;4.10;;;;;;;;;;5015153;28;20144;-80
2023/01/22 10:36:21;;;;;;;14.80;4.45;;;;;;;;;;5032613;28;20033;-80
2023/01/22 10:38:46;;;;;;;20.10;4.63;;;;;;;;;;5032696;28;20100;-77
2023/01/22 10:41:19;;;;;;;14.45;4.20;;;;;;;;;;5032388;28;20167;-77
2023/01/22 10:43:47;;;;;;;16.88;4.20;;;;;;;;;;5032445;28;20030;-77
2023/01/22 10:46:17;;;;;;;17.00;3.95;;;;;;;;;;5014551;28;20034;-80
2023/01/22 10:48:42;;;;;;;11.43;3.90;;;;;;;;;;5013806;28;20026;-78
2023/01/22 10:51:18;;;;;;;11.07;3.38;;;;;;;;;;5015489;28;20435;-77
2023/01/22 10:53:52;;;;;;;15.30;3.63;;;;;;;;;;5015467;28;20017;-78
2023/01/22 10:56:33;;;;;;;;;;;;;;;;;;5016133;28;20031;-77
2023/01/22 10:59:23;;;;;;;14.18;3.90;;;;;;;;;;4998842;28;19916;-78
2023/01/22 11:01:59;;;;;;;15.38;3.95;;;;;;;;;;5010528;28;20088;-78
2023/01/22 11:04:31;;;;;;;21.02;4.78;;;;;;;;;;5015146;28;20068;-76
2023/01/22 11:07:22;;;;;;;16.27;4.05;;;;;;;;;;5032936;28;20033;-77
2023/01/22 11:10:16;;;;;;;14.98;4.10;;;;;;;;;;5015369;28;20487;-78
2023/01/22 11:12:51;;;;;;;9.70;3.80;;;;;;;;;;5008738;28;20069;-77
2023/01/22 11:15:29;;;;;;;16.45;3.63;;;;;;;;;;4998671;28;20124;-79
2023/01/22 11:17:59;;;;;;;10.73;3.45;;;;;;;;;;5028647;28;20076;-80
2023/01/22 11:20:32;;;;;;;13.02;3.53;;;;;;;;;;5032027;28;20041;-78
2023/01/22 11:23:17;;;;;;;11.32;4.15;;;;;;;;;;5014891;28;20120;-79
2023/01/22 11:26:12;;;;;;;17.10;4.38;;;;;;;;;;5035157;28;20029;-78
2023/01/22 11:29:03;;;;;;;12.10;4.85;;;;;;;;;;5017158;28;20037;-78
2023/01/22 11:32:06;;;;;;;12.70;5.57;;;;;;;;;;5034881;28;20079;-78
2023/01/22 11:35:03;;;;;;;18.35;7.00;;;;;;;;;;5036346;28;20030;-78
2023/01/22 11:38:02;;;;;;;19.80;8.60;;;;;;;;;;5034847;28;20369;-78
2023/01/22 11:40:29;;;;;;;27.00;14.35;;;;;;;;;;5035982;28;20067;-79
2023/01/22 11:43:26;;;;;;;30.52;16.40;;;;;;;;;;5018322;28;20388;-79
2023/01/22 11:46:13;;;;;;;34.20;17.75;;;;;;;;;;5034727;28;20464;-79
2023/01/22 11:48:59;;;;;;;37.92;20.58;;;;;;;;;;5034714;28;20032;-79
2023/01/22 11:51:25;;;;;;;38.08;22.40;;;;;;;;;;5034726;28;20025;-79
2023/01/22 11:54:18;;;;;;;43.75;23.30;;;;;;;;;;5034408;28;20026;-78
2023/01/22 11:57:02;;;;;;;46.67;25.38;;;;;;;;;;5034906;28;20021;-78
2023/01/22 11:59:49;;;;;;;49.95;26.15;;;;;;;;;;5032720;28;20116;-78
2023/01/22 12:02:29;;;;;;;44.25;26.17;;;;;;;;;;5035876;28;20033;-79
2023/01/22 12:04:59;;;;;;;42.42;23.73;;;;;;;;;;5035566;28;20026;-79
2023/01/22 12:07:58;;;;;;;45.72;24.55;;;;;;;;;;5034250;28;20083;-79
2023/01/22 12:10:47;;;;;;;43.83;24.35;;;;;;;;;;5035019;28;20026;-79
2023/01/22 12:13:27;;;;;;;40.03;24.02;;;;;;;;;;5041102;23;20045;-77
2023/01/22 12:16:26;;;;;;;57.30;31.80;;;;;;;;;;5055534;28;20495;-77
2023/01/22 12:19:24;;;;;;;86.53;37.50;;;;;;;;;;5054092;28;20088;-78
2023/01/22 12:22:07;;;;;;;65.57;36.80;;;;;;;;;;5037324;28;20033;-77
2023/01/22 12:24:44;;;;;;;64.93;37.75;;;;;;;;;;5055194;28;20476;-78
2023/01/22 12:27:50;;;;;;;71.00;40.20;;;;;;;;;;5055358;28;20067;-79
2023/01/22 12:30:27;;;;;;;68.15;40.78;;;;;;;;;;5044098;28;20033;-79
2023/01/22 12:33:04;;;;;;;74.05;42.15;;;;;;;;;;5037259;28;20021;-79
2023/01/22 12:35:30;;;;;;;75.97;44.40;;;;;;;;;;5052526;28;20060;-79
2023/01/22 12:38:14;;;;;;;80.65;46.17;;;;;;;;;;5053963;28;20032;-79
2023/01/22 12:41:13;;;;;;;81.80;47.05;;;;;;;;;;5053806;28;20021;-79
2023/01/22 12:43:48;;;;;;;79.30;45.35;;;;;;;;;;5053593;28;20040;-80
2023/01/22 12:46:28;;;;;;;76.85;45.40;;;;;;;;;;5055011;28;20036;-80
2023/01/22 12:49:20;;;;;;;77.88;47.33;;;;;;;;;;5053436;28;20471;-79
2023/01/22 12:51:48;;;;;;;86.07;46.55;;;;;;;;;;5034276;28;20036;-79
2023/01/22 12:54:17;;;;;;;79.82;46.28;;;;;;;;;;5053633;28;20028;-79
2023/01/22 12:56:42;;;;;;;81.38;46.20;;;;;;;;;;5054826;28;20089;-79
2023/01/22 12:59:29;;;;;;;81.13;44.65;;;;;;;;;;5054375;28;20471;-78
2023/01/22 13:02:01;;;;;;;78.47;44.10;;;;;;;;;;5020183;28;20533;-79
2023/01/22 13:04:30;;;;;;;76.53;43.50;;;;;;;;;;5054265;28;20115;-78
2023/01/22 13:07:05;;;;;;;70.60;41.47;;;;;;;;;;5053660;28;20518;-79
2023/01/22 13:09:35;;;;;;;69.40;40.10;;;;;;;;;;5053256;28;20025;-78
2023/01/22 13:12:23;;;;;;;68.35;39.95;;;;;;;;;;5036234;28;20102;-80
2023/01/22 13:14:49;;;;;;;63.15;38.08;;;;;;;;;;5036420;28;20021;-80
2023/01/22 13:17:19;;;;;;;60.33;37.17;;;;;;;;;;5020519;28;20507;-79
2023/01/22 13:19:46;;;;;;;64.43;38.38;;;;;;;;;;5019928;28;20439;-78
2023/01/22 13:22:17;;;;;;;59.88;35.70;;;;;;;;;;5036859;28;20025;-79
2023/01/22 13:24:52;;;;;;;55.78;34.75;;;;;;;;;;5054539;28;20032;-80
2023/01/22 13:27:28;;;;;;;60.08;34.10;;;;;;;;;;5036776;28;20028;-79
2023/01/22 13:30:13;;;;;;;59.88;34.88;;;;;;;;;;5019655;28;20025;-79
2023/01/22 13:32:38;;;;;;;54.70;33.22;;;;;;;;;;5053855;28;20017;-79
2023/01/22 13:35:05;;;;;;;52.70;32.50;;;;;;;;;;5053839;28;20387;-78
2023/01/22 13:37:34;;;;;;;51.25;31.10;;;;;;;;;;5054005;28;20024;-77
2023/01/22 13:40:13;;;;;;;47.65;29.00;;;;;;;;;;5053872;28;20037;-78
2023/01/22 13:42:43;;;;;;;42.90;27.08;;;;;;;;;;5036082;28;20028;-78
2023/01/22 13:45:15;;;;;;;40.90;26.30;;;;;;;;;;5019852;28;20368;-77
2023/01/22 13:47:40;;;;;;;40.90;26.05;;;;;;;;;;5019247;28;20426;-78
2023/01/22 13:50:17;;;;;;;38.97;24.42;;;;;;;;;;5053490;28;20024;-78
2023/01/22 13:52:43;;;;;;;39.03;24.77;;;;;;;;;;5019232;28;20462;-78
2023/01/22 13:55:16;;;;;;;37.70;23.65;;;;;;;;;;5053466;28;20033;-77
2023/01/22 13:57:55;;;;;;;33.33;21.70;;;;;;;;;;5019119;28;20040;-78
2023/01/22 14:00:25;;;;;;;36.22;22.35;;;;;;;;;;5035508;28;20053;-79
2023/01/22 14:02:51;;;;;;;34.08;21.05;;;;;;;;;;5035585;28;20021;-79
2023/01/22 14:05:19;;;;;;;35.58;19.50;;;;;;;;;;5035528;28;20445;-79
2023/01/22 14:07:45;;;;;;;32.92;19.40;;;;;;;;;;5053691;28;20025;-79
2023/01/22 14:10:30;;;;;;;26.55;18.13;;;;;;;;;;5053227;28;20029;-79
2023/01/22 14:13:04;;;;;;;26.50;16.90;;;;;;;;;;5010045;28;20401;-79
2023/01/22 14:15:30;;;;;;;25.30;15.60;;;;;;;;;;5021014;28;20033;-79
2023/01/22 14:18:14;;;;;;;24.90;15.88;;;;;;;;;;5005601;28;20377;-80
2023/01/22 14:20:42;;;;;;;20.73;14.18;;;;;;;;;;5014832;28;20059;-78
2023/01/22 14:23:07;;;;;;;23.48;14.30;;;;;;;;;;5015103;28;20041;-79
2023/01/22 14:25:37;;;;;;;20.08;13.50;;;;;;;;;;5032730;28;20029;-79
2023/01/22 14:28:03;;;;;;;22.40;13.40;;;;;;;;;;5032709;28;20033;-79
2023/01/22 14:30:28;;;;;;;23.23;14.25;;;;;;;;;;4998808;28;20070;-79
2023/01/22 14:32:54;;;;;;;19.45;12.93;;;;;;;;;;5032782;28;20038;-79
2023/01/22 14:35:21;;;;;;;17.65;12.55;;;;;;;;;;5015535;28;20053;-79
2023/01/22 14:37:47;;;;;;;23.23;12.82;;;;;;;;;;4998722;28;20033;-79
2023/01/22 14:40:15;;;;;;;20.75;12.65;;;;;;;;;;5032536;28;20022;-79
2023/01/22 14:42:40;;;;;;;21.60;12.40;;;;;;;;;;5032314;28;20037;-79
2023/01/22 14:45:06;;;;;;;19.35;11.63;;;;;;;;;;5032577;28;20040;-78
2023/01/22 14:47:33;;;;;;;18.48;11.82;;;;;;;;;;5030560;28;20026;-77
2023/01/22 14:49:59;;;;;;;19.38;11.70;;;;;;;;;;5015075;28;20017;-78
2023/01/22 14:52:25;;;;;;;18.00;11.43;;;;;;;;;;5014849;28;20099;-78
2023/01/22 14:54:50;;;;;;;16.35;11.23;;;;;;;;;;5032496;28;20025;-79
2023/01/22 14:57:15;;;;;;;16.90;11.20;;;;;;;;;;5014757;28;20037;-76
2023/01/22 14:59:41;;;;;;;19.63;11.52;;;;;;;;;;5035160;28;20036;-78